Time;durP1;ratioP1;P1;durP2;ratioP2;P2;SDS_P1;SDS_P2;PMS_P1;PMS_P2;Temp;Humidity;BMP_temperature;BMP_pressure;BME280_temperature;BME280_humidity;BME280_pressure;Samples;Min_cycle;Max_cycle;Signal;HPM_P1;HPM_P2
2023/10/10 00:00:55;;;;;;;7.97;7.17;;;20.80;72.90;21.80;101287.00;;;;5090414;28;20270;-50
2023/10/10 00:03:27;;;;;;;8.23;7.37;;;20.80;72.90;21.80;101296.00;;;;5090835;28;20250;-50
2023/10/10 00:05:54;;;;;;;8.33;7.23;;;20.80;72.90;21.80;101299.00;;;;5091162;28;20196;-51
2023/10/10 00:08:23;;;;;;;8.37;7.57;;;20.80;72.90;21.80;101295.00;;;;5099883;28;20188;-50
2023/10/10 00:10:50;;;;;;;8.23;7.47;;;20.80;72.80;21.80;101304.00;;;;5099603;28;20264;-50
2023/10/10 00:13:17;;;;;;;8.73;7.53;;;20.80;72.70;21.80;101293.00;;;;5089936;28;20210;-50
2023/10/10 00:15:49;;;;;;;8.90;7.97;;;20.80;72.80;21.80;101287.00;;;;5069532;28;20225;-50
2023/10/10 00:18:21;;;;;;;8.43;7.63;;;20.80;72.60;21.80;101297.00;;;;5068928;28;20190;-50
2023/10/10 00:21:06;;;;;;;8.50;7.50;;;20.80;72.80;21.80;101293.00;;;;5075118;28;20246;-50
2023/10/10 00:23:42;;;;;;;8.10;7.30;;;20.70;72.80;21.70;101303.00;;;;5080619;28;20191;-50
2023/10/10 00:26:20;;;;;;;8.77;7.87;;;20.80;72.90;21.70;101299.00;;;;5087546;28;20224;-50
2023/10/10 00:28:53;;;;;;;8.20;7.40;;;20.70;72.60;21.80;101306.00;;;;5082726;28;20285;-50
2023/10/10 00:31:23;;;;;;;8.33;7.53;;;20.70;72.50;21.70;101293.00;;;;5077222;28;20181;-50
2023/10/10 00:33:52;;;;;;;8.60;7.70;;;20.70;72.80;21.70;101300.00;;;;5068477;28;20227;-51
2023/10/10 00:36:22;;;;;;;9.07;7.40;;;20.70;72.80;21.70;101286.00;;;;5068561;28;20236;-50
2023/10/10 00:39:30;;;;;;;8.47;7.57;;;20.70;72.70;21.70;101275.00;;;;5067397;28;20205;-51
2023/10/10 00:41:50;;;;;;;8.50;7.70;;;20.70;72.50;21.60;101284.00;;;;5077559;28;20899;-50
2023/10/10 00:44:17;;;;;;;8.53;7.73;;;20.70;72.30;21.60;101286.00;;;;5088019;28;20697;-50
2023/10/10 00:46:51;;;;;;;8.60;7.70;;;20.70;72.50;21.60;101290.00;;;;5068445;28;20595;-50
2023/10/10 00:49:23;;;;;;;8.30;7.50;;;20.70;72.50;21.60;101290.00;;;;5070240;28;20587;-50
2023/10/10 00:51:56;;;;;;;7.70;6.93;;;20.60;72.60;21.60;101290.00;;;;5080307;28;20693;-52
2023/10/10 00:56:54;;;;;;;7.60;6.90;;;20.60;72.70;21.60;101268.00;;;;5068421;28;20268;-49
2023/10/10 00:59:34;;;;;;;7.80;7.00;;;20.60;72.60;21.60;101208.00;;;;5066751;28;20205;-50
2023/10/10 01:02:03;;;;;;;7.73;6.93;;;20.60;72.40;21.60;101278.00;;;;5068500;28;20200;-50
2023/10/10 01:04:35;;;;;;;7.57;6.80;;;20.60;72.30;21.50;101278.00;;;;5070085;28;20669;-46
2023/10/10 01:07:08;;;;;;;8.30;7.50;;;20.60;72.40;21.50;101279.00;;;;5079919;28;20201;-46
2023/10/10 01:09:41;;;;;;;7.73;6.90;;;20.60;72.40;21.50;101273.00;;;;5070999;28;20202;-46
2023/10/10 01:12:07;;;;;;;7.90;6.83;;;20.60;72.10;21.50;101274.00;;;;5070722;28;20216;-46
2023/10/10 01:14:32;;;;;;;8.33;7.47;;;20.60;72.10;21.50;101274.00;;;;5081065;28;20184;-46
2023/10/10 01:16:58;;;;;;;10.57;9.50;;;20.50;72.20;21.50;101275.00;;;;5088410;28;20173;-45
2023/10/10 01:19:31;;;;;;;8.30;7.50;;;20.60;72.00;21.50;101266.00;;;;5087773;28;20203;-45
2023/10/10 01:21:58;;;;;;;8.10;7.33;;;20.50;71.90;21.50;101279.00;;;;5086938;28;20182;-46
2023/10/10 01:24:27;;;;;;;7.90;7.10;;;20.50;72.00;21.50;101277.00;;;;5088041;28;20291;-45
2023/10/10 01:27:03;;;;;;;7.37;6.67;;;20.50;72.10;21.40;101259.00;;;;5088212;28;20177;-46
2023/10/10 01:29:37;;;;;;;8.10;7.30;;;20.50;72.10;21.40;101261.00;;;;5087817;28;20208;-45
2023/10/10 01:32:04;;;;;;;7.77;6.97;;;20.50;72.10;21.40;101262.00;;;;5087810;28;20183;-45
2023/10/10 01:34:47;;;;;;;8.07;7.27;;;20.50;72.00;21.40;101260.00;;;;5084921;28;20181;-45
2023/10/10 01:37:22;;;;;;;7.90;7.10;;;20.50;72.00;21.40;101248.00;;;;5083121;28;20180;-46
2023/10/10 01:40:16;;;;;;;8.07;7.30;;;20.40;72.00;21.40;101250.00;;;;5071222;28;20291;-45
2023/10/10 01:42:53;;;;;;;7.20;6.50;;;20.40;72.00;21.30;101246.00;;;;5080040;28;20186;-46
2023/10/10 01:45:26;;;;;;;8.27;7.47;;;20.40;72.20;21.30;101252.00;;;;5079872;28;20715;-46
2023/10/10 01:47:58;;;;;;;7.30;6.60;;;20.40;72.10;21.30;101243.00;;;;5070835;28;20209;-46
2023/10/10 01:50:26;;;;;;;7.97;7.13;;;20.40;71.90;21.30;101247.00;;;;5086232;28;20278;-46
2023/10/10 01:52:55;;;;;;;8.97;8.17;;;20.40;71.90;21.30;101247.00;;;;5080312;28;20469;-46
2023/10/10 01:55:24;;;;;;;8.80;7.90;;;20.40;71.40;21.30;101246.00;;;;5073022;28;20204;-46
2023/10/10 01:57:53;;;;;;;9.27;8.00;;;20.40;71.70;21.30;101246.00;;;;5071223;28;20574;-46
2023/10/10 02:00:26;;;;;;;7.93;7.13;;;20.40;71.70;21.30;101234.00;;;;5072639;28;20208;-46
2023/10/10 02:02:55;;;;;;;9.67;8.17;;;20.40;71.70;21.30;101235.00;;;;5072339;28;20659;-47
2023/10/10 02:07:57;;;;;;;8.10;7.30;;;20.30;71.40;21.20;101236.00;;;;5072289;28;20181;-46
2023/10/10 02:10:26;;;;;;;7.83;6.50;;;20.30;71.60;21.20;101236.00;;;;5089072;28;20509;-49
2023/10/10 02:12:52;;;;;;;7.20;6.50;;;20.30;71.70;21.20;101234.00;;;;5081723;28;20254;-46
2023/10/10 02:15:26;;;;;;;7.00;6.33;;;20.30;71.70;21.20;101231.00;;;;5074000;28;20778;-46
2023/10/10 02:17:56;;;;;;;7.93;6.90;;;20.30;71.80;21.10;101235.00;;;;5071147;28;20192;-45
2023/10/10 02:22:53;;;;;;;7.27;6.57;;;20.30;71.80;21.10;101236.00;;;;5071345;28;20212;-46
2023/10/10 02:27:54;;;;;;;6.43;5.80;;;20.30;71.70;21.10;101223.00;;;;5071304;28;20172;-46
2023/10/10 02:30:40;;;;;;;7.43;6.73;;;20.20;71.60;21.10;101216.00;;;;5070348;28;20224;-45
2023/10/10 02:36:03;;;;;;;6.37;5.77;;;20.20;71.60;21.10;101213.00;;;;5082108;28;20189;-46
2023/10/10 02:38:39;;;;;;;6.77;6.17;;;20.20;71.80;21.00;101217.00;;;;5090454;28;20268;-45
2023/10/10 02:41:27;;;;;;;6.70;6.00;;;20.20;71.90;21.10;101220.00;;;;5089409;28;20266;-45
2023/10/10 02:47:02;;;;;;;6.27;5.77;;;20.10;71.60;21.00;101210.00;;;;5072120;28;20690;-45
2023/10/10 02:49:30;;;;;;;6.27;5.67;;;20.20;71.80;21.00;101208.00;;;;5066776;28;20213;-47
2023/10/10 02:51:56;;;;;;;6.20;5.57;;;20.10;71.70;21.00;101208.00;;;;5070238;28;20400;-45
2023/10/10 02:56:57;;;;;;;7.57;5.90;;;20.10;71.60;21.00;101207.00;;;;5070263;28;20563;-45
2023/10/10 02:59:38;;;;;;;6.20;5.60;;;20.10;71.60;21.00;101199.00;;;;5068815;28;20400;-46
2023/10/10 03:02:18;;;;;;;5.90;5.30;;;20.10;71.50;21.00;101201.00;;;;5071211;28;20216;-46
2023/10/10 03:07:31;;;;;;;6.80;6.10;;;20.10;71.50;21.00;101200.00;;;;5091664;28;20193;-47
2023/10/10 03:12:44;;;;;;;6.23;5.63;;;20.10;71.10;20.90;101203.00;;;;5090345;28;20184;-46
2023/10/10 03:17:48;;;;;;;5.93;5.37;;;20.10;71.20;20.90;101210.00;;;;5091090;28;20272;-46
2023/10/10 03:25:51;;;;;;;6.03;5.43;;;20.00;71.30;20.80;101203.00;;;;5088903;28;20255;-46
2023/10/10 03:28:21;;;;;;;6.33;5.80;;;20.00;71.30;20.80;101209.00;;;;5088900;28;20177;-45
2023/10/10 03:36:23;;;;;;;6.10;5.50;;;19.90;71.20;20.80;101212.00;;;;5091201;28;20594;-45
2023/10/10 05:23:29;;;;;;;5.63;5.13;;;19.90;70.90;20.60;101201.00;;;;5090507;28;20176;-46
2023/10/10 05:23:34;;;;;;;9.97;8.40;;;19.50;69.60;20.20;101182.00;;;;5094494;28;20199;-46
2023/10/10 05:26:02;;;;;;;8.00;7.20;;;19.60;70.20;20.20;101170.00;;;;5087981;28;20208;-46
2023/10/10 05:28:32;;;;;;;10.63;8.57;;;19.50;70.20;20.20;101165.00;;;;5076030;28;20173;-45
2023/10/10 05:30:59;;;;;;;8.30;7.40;;;19.50;69.90;20.20;101177.00;;;;5079785;28;20184;-45
2023/10/10 05:33:26;;;;;;;9.00;8.03;;;19.50;70.30;20.20;101173.00;;;;5079996;28;20205;-45
2023/10/10 05:36:00;;;;;;;8.97;7.10;;;19.50;70.40;20.20;101181.00;;;;5080473;28;20177;-46
2023/10/10 05:38:25;;;;;;;9.00;7.80;;;19.50;70.30;20.20;101184.00;;;;5088769;28;20241;-46
2023/10/10 05:40:51;;;;;;;11.87;9.03;;;19.40;70.30;20.20;101178.00;;;;5091073;28;20405;-46
2023/10/10 05:43:17;;;;;;;12.27;8.93;;;19.40;70.10;20.10;101182.00;;;;5086156;28;20310;-46
2023/10/10 05:45:43;;;;;;;9.40;8.50;;;19.40;70.40;20.10;101187.00;;;;5090351;28;20877;-46
2023/10/10 05:48:09;;;;;;;9.20;8.20;;;19.40;70.40;20.10;101177.00;;;;5086077;28;20174;-45
2023/10/10 05:50:42;;;;;;;11.53;8.73;;;19.40;70.20;20.10;101174.00;;;;5071500;28;20725;-46
2023/10/10 05:53:08;;;;;;;9.03;8.07;;;19.50;70.10;20.10;101176.00;;;;5075216;28;20885;-45
2023/10/10 05:55:37;;;;;;;8.33;7.53;;;19.40;70.20;20.10;101174.00;;;;5098302;28;20206;-46
2023/10/10 05:58:03;;;;;;;9.97;8.97;;;19.40;70.50;20.10;101162.00;;;;5077876;28;20185;-45
2023/10/10 06:00:36;;;;;;;11.50;9.13;;;19.40;70.30;20.10;101177.00;;;;5070288;28;20216;-46
2023/10/10 06:03:02;;;;;;;9.97;8.70;;;19.40;70.20;20.10;101183.00;;;;5071475;28;20272;-45
2023/10/10 06:05:29;;;;;;;10.00;9.10;;;19.40;70.30;20.10;101170.00;;;;5071959;28;20199;-46
2023/10/10 06:07:57;;;;;;;10.03;9.03;;;19.30;70.20;20.10;101177.00;;;;5070965;28;20190;-46
2023/10/10 06:10:28;;;;;;;9.60;8.63;;;19.30;70.00;20.10;101181.00;;;;5071701;28;20219;-45
2023/10/10 06:12:57;;;;;;;9.10;8.20;;;19.30;70.50;20.00;101182.00;;;;5071654;28;20241;-45
2023/10/10 06:15:22;;;;;;;8.97;7.53;;;19.30;70.50;20.00;101181.00;;;;5090713;28;20262;-47
2023/10/10 06:17:49;;;;;;;10.27;8.53;;;19.30;70.60;20.00;101173.00;;;;5092147;28;20177;-46
2023/10/10 06:20:21;;;;;;;8.13;7.30;;;19.30;70.50;20.00;101178.00;;;;5091817;28;20747;-44
2023/10/10 06:22:53;;;;;;;9.40;8.20;;;19.30;70.40;20.00;101170.00;;;;5092346;28;20273;-45
2023/10/10 06:25:18;;;;;;;8.90;7.87;;;19.30;70.50;20.00;101174.00;;;;5092000;28;20234;-46
2023/10/10 06:27:45;;;;;;;10.13;8.40;;;19.30;70.70;20.00;101171.00;;;;5091541;28;20211;-46
2023/10/10 06:30:17;;;;;;;9.47;8.00;;;19.30;70.40;20.00;101174.00;;;;5091191;28;20207;-45
2023/10/10 06:32:44;;;;;;;9.50;8.33;;;19.20;70.70;20.00;101181.00;;;;5091147;28;20666;-46
2023/10/10 06:37:53;;;;;;;9.17;8.27;;;19.10;71.00;19.90;101176.00;;;;5091980;28;20198;-46
2023/10/10 06:40:25;;;;;;;8.80;7.50;;;19.20;70.80;19.90;101177.00;;;;5091517;28;20225;-46
2023/10/10 06:42:55;;;;;;;8.10;7.30;;;19.20;71.00;19.90;101171.00;;;;5091436;28;20198;-47
2023/10/10 06:45:25;;;;;;;7.50;6.70;;;19.20;71.10;19.90;101165.00;;;;5066430;28;20212;-48
2023/10/10 06:47:51;;;;;;;7.23;6.50;;;19.20;71.20;20.00;101170.00;;;;5091558;28;20196;-47
2023/10/10 06:50:21;;;;;;;7.07;6.20;;;19.20;71.20;20.00;101162.00;;;;5091094;28;20295;-48
2023/10/10 06:52:54;;;;;;;8.37;6.10;;;19.20;71.20;20.00;101164.00;;;;5091606;28;20317;-48
2023/10/10 06:55:23;;;;;;;6.73;5.67;;;19.10;71.30;20.00;101162.00;;;;5091337;28;20216;-48
2023/10/10 06:57:58;;;;;;;7.30;6.13;;;19.20;71.60;20.00;101149.00;;;;5090760;28;20182;-48
2023/10/10 07:03:03;;;;;;;6.60;5.63;;;19.20;72.00;20.00;101155.00;;;;5091211;28;20195;-49
2023/10/10 07:05:33;;;;;;;6.23;5.60;;;19.20;71.90;20.10;101150.00;;;;5086794;28;20661;-48
2023/10/10 07:07:59;;;;;;;6.40;5.80;;;19.20;72.00;20.10;101153.00;;;;5089626;28;20181;-49
2023/10/10 07:10:32;;;;;;;6.60;5.33;;;19.30;72.10;20.10;101165.00;;;;5091527;28;20607;-48
2023/10/10 07:12:59;;;;;;;6.77;5.63;;;19.30;72.20;20.10;101168.00;;;;5091571;28;20173;-48
2023/10/10 07:15:26;;;;;;;7.20;5.20;;;19.30;72.20;20.10;101163.00;;;;5082025;28;20248;-48
2023/10/10 07:18:04;;;;;;;7.30;4.80;;;19.30;72.30;20.10;101164.00;;;;5077777;28;20183;-48
2023/10/10 07:23:20;;;;;;;5.40;4.90;;;19.30;72.40;20.10;101164.00;;;;5070606;28;20187;-48
2023/10/10 07:25:59;;;;;;;9.30;5.00;;;19.30;72.50;20.10;101160.00;;;;5070605;28;20721;-48
2023/10/10 07:28:47;;;;;;;6.20;4.83;;;19.30;72.70;20.10;101166.00;;;;5080333;28;20186;-48
2023/10/10 07:31:20;;;;;;;5.97;4.90;;;19.40;72.90;20.10;101167.00;;;;5087236;28;20180;-48
2023/10/10 07:34:03;;;;;;;5.70;5.10;;;19.30;72.90;20.10;101158.00;;;;5077910;28;20178;-49
2023/10/10 07:36:29;;;;;;;6.20;5.07;;;19.40;73.20;20.10;101154.00;;;;5084456;28;20185;-48
2023/10/10 07:39:31;;;;;;;5.30;4.80;;;19.40;73.50;20.10;101162.00;;;;5096456;28;20266;-48
2023/10/10 07:41:46;;;;;;;5.33;4.53;;;19.40;73.70;20.10;101152.00;;;;5089895;28;20223;-48
2023/10/10 07:44:16;;;;;;;5.30;4.80;;;19.40;74.00;20.10;101167.00;;;;5078630;28;20179;-49
2023/10/10 07:47:07;;;;;;;5.07;4.60;;;19.40;74.10;20.10;101160.00;;;;5088982;28;20604;-48
2023/10/10 07:49:28;;;;;;;5.60;4.70;;;19.40;74.10;20.20;101164.00;;;;5091316;28;20242;-48
2023/10/10 07:51:54;;;;;;;5.37;4.73;;;19.40;74.40;20.20;101164.00;;;;5109921;28;20553;-48
2023/10/10 07:54:30;;;;;;;5.17;4.60;;;19.30;74.50;20.20;101162.00;;;;5091919;28;20696;-47
2023/10/10 07:56:55;;;;;;;5.13;4.50;;;19.40;74.80;20.20;101166.00;;;;5084096;28;20184;-47
2023/10/10 07:59:21;;;;;;;5.67;4.83;;;19.40;74.90;20.20;101172.00;;;;5089777;28;20684;-48
2023/10/10 08:01:48;;;;;;;5.80;4.60;;;19.30;75.20;20.20;101168.00;;;;5090252;28;20669;-48
2023/10/10 08:04:14;;;;;;;8.97;4.90;;;19.40;75.30;20.20;101164.00;;;;5090325;28;20185;-48
2023/10/10 08:06:44;;;;;;;7.17;4.90;;;19.30;75.80;20.20;101165.00;;;;5087375;28;20889;-48
2023/10/10 08:11:45;;;;;;;5.20;4.37;;;19.40;75.40;20.20;101156.00;;;;5088535;28;20173;-47
2023/10/10 08:14:11;;;;;;;5.57;4.77;;;19.30;75.10;20.20;101164.00;;;;5086076;28;20169;-50
2023/10/10 08:16:39;;;;;;;5.50;4.60;;;19.30;75.00;20.20;101164.00;;;;5089179;28;20184;-49
2023/10/10 08:19:05;;;;;;;5.27;4.43;;;19.40;75.20;20.20;101156.00;;;;5088891;28;20197;-48
2023/10/10 08:21:53;;;;;;;6.67;4.80;;;19.30;75.00;20.20;101155.00;;;;5083376;28;20226;-48
2023/10/10 08:24:19;;;;;;;5.13;4.63;;;19.30;75.00;20.20;101153.00;;;;5082088;28;20192;-47
2023/10/10 08:26:51;;;;;;;5.30;4.80;;;19.30;75.20;20.20;101149.00;;;;5078556;28;20197;-47
2023/10/10 08:29:18;;;;;;;5.83;4.40;;;19.30;74.90;20.20;101144.00;;;;5070063;28;20197;-48
2023/10/10 08:31:44;;;;;;;4.73;4.33;;;19.30;74.90;20.10;101136.00;;;;5082355;28;20190;-48
2023/10/10 08:34:10;;;;;;;6.07;4.33;;;19.30;74.80;20.10;101143.00;;;;5076321;28;20221;-48
2023/10/10 08:36:43;;;;;;;5.07;4.57;;;19.40;74.90;20.20;101138.00;;;;5091709;28;20177;-48
2023/10/10 08:39:25;;;;;;;4.80;4.40;;;19.30;74.80;20.10;101140.00;;;;5089803;28;20431;-48
2023/10/10 08:41:52;;;;;;;5.03;4.53;;;19.30;74.80;20.10;101153.00;;;;5085114;28;20179;-48
2023/10/10 08:44:18;;;;;;;5.27;4.60;;;19.30;74.70;20.20;101137.00;;;;5051839;28;20659;-48
2023/10/10 08:46:47;;;;;;;5.17;4.67;;;19.30;74.70;20.10;101126.00;;;;5056713;28;20194;-48
2023/10/10 08:49:14;;;;;;;5.37;4.60;;;19.30;74.70;20.20;101141.00;;;;5075567;28;20231;-47
2023/10/10 08:51:42;;;;;;;4.80;4.30;;;19.30;74.70;20.20;101141.00;;;;5077547;28;20549;-48
2023/10/10 08:54:10;;;;;;;4.83;4.30;;;19.30;74.60;20.20;101149.00;;;;5087496;28;20193;-48
2023/10/10 08:57:03;;;;;;;4.63;4.23;;;19.30;74.70;20.20;101142.00;;;;5089817;28;20585;-48
2023/10/10 08:59:30;;;;;;;4.77;4.30;;;19.40;74.80;20.20;101139.00;;;;5088771;28;20570;-49
2023/10/10 09:02:16;;;;;;;6.50;4.60;;;19.30;74.70;20.20;101133.00;;;;5086596;28;20201;-48
2023/10/10 09:04:46;;;;;;;5.17;4.53;;;19.30;74.80;20.10;101136.00;;;;5081628;28;20204;-47
2023/10/10 09:07:20;;;;;;;5.97;4.47;;;19.30;74.80;20.20;101134.00;;;;5048318;28;20176;-47
2023/10/10 09:09:54;;;;;;;5.13;4.57;;;19.30;74.80;20.20;101129.00;;;;5082676;28;20202;-49
2023/10/10 09:12:20;;;;;;;7.03;4.53;;;19.40;75.00;20.20;101136.00;;;;5087826;28;20211;-48
2023/10/10 09:14:50;;;;;;;4.47;4.07;;;19.30;74.80;20.20;101135.00;;;;5075066;28;20210;-48
2023/10/10 09:17:32;;;;;;;4.33;3.93;;;19.40;75.00;20.20;101136.00;;;;5067868;28;20178;-49
2023/10/10 09:19:58;;;;;;;6.23;4.23;;;19.30;74.80;20.20;101130.00;;;;5082089;28;20655;-47
2023/10/10 09:22:42;;;;;;;6.43;4.23;;;19.40;74.90;20.20;101131.00;;;;5087574;28;20277;-48
2023/10/10 09:25:42;;;;;;;4.77;4.30;;;19.40;75.00;20.20;101129.00;;;;5087995;28;20199;-50
2023/10/10 09:28:10;;;;;;;5.70;4.60;;;19.40;75.10;20.20;101128.00;;;;5089024;28;20240;-48
2023/10/10 09:30:45;;;;;;;4.40;4.00;;;19.40;75.10;20.20;101119.00;;;;5088712;28;20205;-49
2023/10/10 09:36:15;;;;;;;5.53;4.53;;;19.40;75.20;20.20;101122.00;;;;5048403;28;20195;-48
2023/10/10 09:38:48;;;;;;;4.93;4.20;;;19.40;75.20;20.20;101123.00;;;;5090148;28;20184;-48
2023/10/10 09:49:51;;;;;;;4.77;4.23;;;19.40;75.30;20.20;101125.00;;;;5095209;28;20239;-48
2023/10/10 09:55:25;;;;;;;4.87;4.00;;;19.40;75.30;20.20;101121.00;;;;5089673;28;20246;-48
2023/10/10 09:58:00;;;;;;;4.63;4.07;;;19.50;75.40;20.20;101127.00;;;;5082628;28;20197;-47
2023/10/10 10:06:34;;;;;;;4.30;3.90;;;19.50;75.50;20.30;101133.00;;;;5091928;28;20210;-48
2023/10/10 10:09:34;;;;;;;4.50;4.10;;;19.50;75.50;20.30;101113.00;;;;5091439;28;20222;-48
2023/10/10 10:12:19;;;;;;;4.57;4.07;;;19.50;75.50;20.30;101136.00;;;;5090268;28;20214;-48
2023/10/10 10:14:56;;;;;;;4.30;3.90;;;19.50;75.50;20.30;101131.00;;;;5080400;28;20550;-48
2023/10/10 10:17:47;;;;;;;4.40;4.00;;;19.50;75.50;20.30;101133.00;;;;5054715;28;20192;-48
2023/10/10 10:20:22;;;;;;;4.40;4.00;;;19.50;75.50;20.30;101137.00;;;;5087630;28;20200;-48
2023/10/10 10:22:53;;;;;;;4.40;4.00;;;19.50;75.50;20.30;101143.00;;;;5092608;28;20184;-48
2023/10/10 10:25:25;;;;;;;4.40;4.00;;;19.50;75.50;20.30;101143.00;;;;5092744;28;20207;-47
2023/10/10 10:28:00;;;;;;;4.47;4.07;;;19.50;75.50;20.30;101136.00;;;;5092837;28;20183;-48
2023/10/10 10:32:56;;;;;;;4.40;3.97;;;19.50;75.60;20.40;101132.00;;;;5092523;28;20234;-48
2023/10/10 10:36:06;;;;;;;4.47;3.97;;;19.50;75.60;20.40;101123.00;;;;5089576;28;20267;-47
2023/10/10 10:38:33;;;;;;;4.53;4.13;;;19.60;75.70;20.40;101128.00;;;;5089133;28;20186;-48
2023/10/10 10:41:16;;;;;;;4.80;4.30;;;19.60;75.80;20.40;101112.00;;;;5081300;28;20189;-48
2023/10/10 10:43:49;;;;;;;4.17;3.83;;;19.60;75.80;20.40;101110.00;;;;5090770;28;20341;-49
2023/10/10 10:46:15;;;;;;;4.47;3.87;;;19.60;75.90;20.40;101110.00;;;;5078562;28;20699;-49
2023/10/10 10:48:54;;;;;;;4.50;4.10;;;19.60;75.90;20.40;101110.00;;;;5066262;28;20181;-48
2023/10/10 10:51:23;;;;;;;4.73;3.90;;;19.60;76.00;20.50;101099.00;;;;5082542;28;20271;-49
2023/10/10 10:53:56;;;;;;;4.13;3.73;;;19.60;76.00;20.50;101095.00;;;;5074028;28;20627;-48
2023/10/10 11:01:24;;;;;;;4.30;3.90;;;19.70;76.30;20.50;101094.00;;;;5090706;28;20252;-48
2023/10/10 11:03:53;;;;;;;4.20;3.80;;;19.70;76.30;20.50;101095.00;;;;5061243;28;20193;-48
2023/10/10 11:06:20;;;;;;;4.40;3.57;;;19.70;76.30;20.60;101084.00;;;;5083804;28;20278;-48
2023/10/10 11:14:00;;;;;;;4.73;4.00;;;19.80;76.70;20.60;101096.00;;;;5082292;28;20174;-49
2023/10/10 11:16:44;;;;;;;4.30;3.90;;;19.80;76.80;20.60;101079.00;;;;5083038;28;20184;-49
2023/10/10 11:21:49;;;;;;;4.73;4.33;;;19.80;77.10;20.70;101088.00;;;;5090704;28;20190;-47
2023/10/10 11:24:24;;;;;;;4.73;4.17;;;19.80;77.10;20.70;101081.00;;;;5083646;28;20180;-48
2023/10/10 11:27:14;;;;;;;4.03;3.63;;;19.80;77.10;20.70;101069.00;;;;5081491;28;20191;-48
2023/10/10 11:29:45;;;;;;;4.67;3.97;;;19.90;77.50;20.70;101068.00;;;;5090197;28;20200;-49
2023/10/10 11:32:36;;;;;;;4.30;3.90;;;19.90;77.70;20.80;101074.00;;;;5089831;28;20203;-48
2023/10/10 11:35:22;;;;;;;5.73;4.07;;;19.90;78.60;20.80;101070.00;;;;5096899;28;20598;-47
2023/10/10 11:37:56;;;;;;;6.20;3.83;;;20.00;78.40;20.80;101061.00;;;;5099507;28;20191;-48
2023/10/10 11:42:55;;;;;;;4.53;3.90;;;20.00;78.40;20.80;101066.00;;;;5069807;28;20208;-48
2023/10/10 11:45:26;;;;;;;5.23;4.20;;;20.10;78.10;20.90;101060.00;;;;5084487;28;20237;-47
2023/10/10 11:47:52;;;;;;;5.87;3.93;;;20.10;78.40;20.90;101052.00;;;;5090281;28;20188;-49
2023/10/10 11:50:22;;;;;;;4.60;3.97;;;20.10;78.30;21.00;101045.00;;;;5093267;28;20209;-48
2023/10/10 11:52:58;;;;;;;5.63;3.93;;;20.10;78.00;21.00;101054.00;;;;5090293;28;20184;-49
2023/10/10 11:55:28;;;;;;;6.17;4.17;;;20.10;78.30;21.00;101047.00;;;;5088941;28;20250;-47
2023/10/10 11:57:58;;;;;;;4.97;3.70;;;20.20;78.10;21.00;101058.00;;;;5085792;28;20571;-47
2023/10/10 12:00:42;;;;;;;3.93;3.53;;;20.20;78.10;21.10;101044.00;;;;5087305;28;20233;-48
2023/10/10 12:03:11;;;;;;;4.30;3.83;;;20.30;78.20;21.10;101042.00;;;;5085547;28;20265;-48
2023/10/10 12:05:47;;;;;;;6.67;3.90;;;20.30;78.20;21.10;101055.00;;;;5086159;28;20201;-48
2023/10/10 12:08:15;;;;;;;4.50;3.67;;;20.30;78.00;21.20;101038.00;;;;5077155;28;20196;-48
2023/10/10 12:10:47;;;;;;;4.97;3.80;;;20.30;78.10;21.20;101033.00;;;;5088758;28;20197;-48
2023/10/10 12:16:11;;;;;;;5.10;4.00;;;20.40;78.00;21.30;101041.00;;;;5070343;28;20207;-48
2023/10/10 12:18:44;;;;;;;4.03;3.63;;;20.40;78.30;21.30;101036.00;;;;5071570;28;20217;-49
2023/10/10 12:21:14;;;;;;;4.17;3.77;;;20.40;78.70;21.30;101037.00;;;;5072068;28;20816;-50
2023/10/10 12:23:40;;;;;;;4.83;3.70;;;20.50;78.10;21.40;101028.00;;;;5089835;28;20185;-47
2023/10/10 12:26:08;;;;;;;5.27;3.63;;;20.50;78.00;21.40;101036.00;;;;5087711;28;20220;-48
2023/10/10 12:28:34;;;;;;;4.57;3.80;;;20.50;78.20;21.40;101036.00;;;;5089051;28;20192;-48
2023/10/10 12:31:03;;;;;;;5.03;4.43;;;20.50;78.00;21.50;101029.00;;;;5089626;28;20579;-48
2023/10/10 12:33:29;;;;;;;4.43;3.80;;;20.60;78.30;21.50;101013.00;;;;5089244;28;20177;-47
2023/10/10 12:35:56;;;;;;;5.97;3.93;;;20.60;78.40;21.50;101014.00;;;;5089266;28;20192;-48
2023/10/10 12:38:22;;;;;;;4.30;3.90;;;20.70;78.80;21.50;101013.00;;;;5087991;28;20268;-48
2023/10/10 12:40:51;;;;;;;4.53;4.13;;;20.70;79.10;21.60;101011.00;;;;5068959;28;20280;-48
2023/10/10 12:43:18;;;;;;;4.70;4.20;;;20.70;79.30;21.60;101009.00;;;;5069306;28;20285;-48
2023/10/10 12:45:45;;;;;;;4.83;4.30;;;20.80;79.80;21.60;101019.00;;;;5086012;28;20212;-48
2023/10/10 12:48:20;;;;;;;4.80;4.30;;;20.80;79.60;21.70;101016.00;;;;5089482;28;20177;-49
2023/10/10 12:50:46;;;;;;;11.63;4.87;;;20.80;79.50;21.70;101016.00;;;;5089396;28;20290;-48
2023/10/10 12:53:15;;;;;;;8.07;4.90;;;20.80;78.70;21.70;101012.00;;;;5089355;28;20553;-47
2023/10/10 12:55:52;;;;;;;8.33;5.47;;;20.90;79.60;21.70;101002.00;;;;5089225;28;20202;-49
2023/10/10 12:58:20;;;;;;;7.60;5.10;;;21.00;77.60;21.80;101005.00;;;;5089243;28;20184;-48
2023/10/10 13:00:52;;;;;;;7.77;5.00;;;21.10;75.90;21.80;101001.00;;;;5089097;28;20205;-49
2023/10/10 13:03:28;;;;;;;8.50;5.47;;;21.20;75.80;21.90;100994.00;;;;5088467;28;20807;-48
2023/10/10 13:05:58;;;;;;;10.40;5.40;;;21.30;74.10;22.00;100992.00;;;;5073127;28;20746;-48
2023/10/10 13:11:16;;;;;;;7.53;5.30;;;21.50;70.40;22.10;100981.00;;;;5089520;28;20337;-48
2023/10/10 13:13:45;;;;;;;7.13;5.40;;;21.50;70.10;22.20;100980.00;;;;5085252;28;20551;-47
2023/10/10 13:16:52;;;;;;;7.83;5.57;;;21.60;70.00;22.20;100983.00;;;;5071570;28;20261;-48
2023/10/10 13:19:13;;;;;;;7.60;5.50;;;21.60;69.50;22.30;100970.00;;;;5088809;28;20493;-49
2023/10/10 13:21:41;;;;;;;9.90;6.10;;;21.70;69.50;22.30;100978.00;;;;5089167;28;20188;-48
2023/10/10 13:24:11;;;;;;;7.93;5.67;;;21.70;69.50;22.40;100971.00;;;;5089251;28;20650;-48
2023/10/10 13:26:38;;;;;;;9.93;6.03;;;21.80;68.80;22.40;100970.00;;;;5088455;28;20208;-48
2023/10/10 13:29:05;;;;;;;7.87;5.87;;;21.80;68.20;22.50;100980.00;;;;5088681;28;20625;-48
2023/10/10 13:31:31;;;;;;;8.67;5.80;;;21.80;68.90;22.50;100974.00;;;;5088523;28;20177;-48
2023/10/10 13:33:57;;;;;;;8.63;5.70;;;21.90;67.80;22.60;100979.00;;;;5088983;28;20310;-48
2023/10/10 13:36:23;;;;;;;6.60;5.10;;;22.00;66.00;22.60;100973.00;;;;5083698;28;20260;-49
2023/10/10 13:38:50;;;;;;;6.13;5.50;;;22.00;65.80;22.60;100967.00;;;;5082696;28;20220;-49
2023/10/10 13:41:16;;;;;;;8.70;5.80;;;22.00;66.10;22.70;100972.00;;;;5073041;28;20185;-50
2023/10/10 13:43:47;;;;;;;10.00;5.73;;;22.00;66.10;22.70;100968.00;;;;5072676;28;20193;-49
2023/10/10 13:46:18;;;;;;;7.97;5.80;;;22.00;66.50;22.80;100965.00;;;;5089238;28;20196;-47
2023/10/10 13:48:47;;;;;;;7.00;5.70;;;22.10;66.60;22.80;100957.00;;;;5088680;28;20530;-49
2023/10/10 13:51:16;;;;;;;9.10;5.93;;;22.20;66.30;22.80;100960.00;;;;5083264;28;20187;-47
2023/10/10 13:53:43;;;;;;;7.73;5.33;;;22.10;66.70;22.90;100957.00;;;;5098861;28;20242;-48
2023/10/10 13:56:10;;;;;;;8.63;5.50;;;22.20;67.00;22.90;100957.00;;;;5093184;28;20177;-48
2023/10/10 13:58:36;;;;;;;7.00;5.40;;;22.30;66.30;23.00;100963.00;;;;5072520;28;20239;-48
2023/10/10 14:03:45;;;;;;;6.60;5.00;;;22.30;64.70;23.00;100963.00;;;;5090963;28;20536;-48
2023/10/10 14:06:19;;;;;;;7.70;5.37;;;22.50;64.00;23.10;100956.00;;;;5091639;28;20247;-48
2023/10/10 14:08:47;;;;;;;7.83;5.17;;;22.40;64.20;23.10;100952.00;;;;5090719;28;20196;-48
2023/10/10 14:11:22;;;;;;;10.63;5.50;;;22.50;64.50;23.20;100941.00;;;;5090249;28;20184;-48
2023/10/10 14:13:53;;;;;;;7.97;5.43;;;22.50;64.00;23.20;100953.00;;;;5089370;28;20246;-47
2023/10/10 14:16:21;;;;;;;6.80;5.33;;;22.50;64.60;23.20;100956.00;;;;5090021;28;20181;-47
2023/10/10 14:18:49;;;;;;;6.27;5.40;;;22.50;64.80;23.30;100950.00;;;;5091392;28;20185;-47
2023/10/10 14:21:25;;;;;;;9.07;5.50;;;22.50;65.70;23.30;100958.00;;;;5089679;28;20651;-50
2023/10/10 14:24:04;;;;;;;7.03;4.97;;;22.50;66.30;23.30;100944.00;;;;5091851;28;20333;-50